createdAt,value
2022-07-28T00:00:58.794Z,16.46
2022-07-28T00:01:58.750Z,16.44
2022-07-28T00:02:58.624Z,16.43
2022-07-28T00:03:58.631Z,16.43
2022-07-28T00:04:58.526Z,16.43
2022-07-28T00:05:58.644Z,16.46
2022-07-28T00:06:58.586Z,16.44
2022-07-28T00:07:58.637Z,16.50
2022-07-28T00:08:58.494Z,16.46
2022-07-28T00:10:00.779Z,16.44
2022-07-28T00:10:58.446Z,16.44
2022-07-28T00:11:58.435Z,16.43
2022-07-28T00:12:58.526Z,16.43
2022-07-28T00:13:58.619Z,16.46
2022-07-28T00:14:58.456Z,16.47
2022-07-28T00:15:58.660Z,16.50
2022-07-28T00:16:58.481Z,16.50
2022-07-28T00:17:58.711Z,16.54
2022-07-28T00:18:58.469Z,16.55
2022-07-28T00:19:58.620Z,16.51
2022-07-28T00:20:58.461Z,16.51
2022-07-28T00:21:58.360Z,16.51
2022-07-28T00:22:58.285Z,16.49
2022-07-28T00:23:58.280Z,16.46
2022-07-28T00:24:58.271Z,16.41
2022-07-28T00:25:58.303Z,16.39
2022-07-28T00:26:58.488Z,16.34
2022-07-28T00:27:58.293Z,16.31
2022-07-28T00:28:58.486Z,16.26
2022-07-28T00:29:58.204Z,16.24
2022-07-28T00:30:58.519Z,16.17
2022-07-28T00:31:58.287Z,16.13
2022-07-28T00:32:58.165Z,16.08
2022-07-28T00:33:58.205Z,16.03
2022-07-28T00:34:58.136Z,16.03
2022-07-28T00:35:58.186Z,16.02
2022-07-28T00:36:58.136Z,15.98
2022-07-28T00:37:58.101Z,15.96
2022-07-28T00:38:58.161Z,15.96
2022-07-28T00:39:58.080Z,15.92
2022-07-28T00:40:58.151Z,15.92
2022-07-28T00:41:58.111Z,15.91
2022-07-28T00:42:58.171Z,15.88
2022-07-28T00:43:58.070Z,15.88
2022-07-28T00:44:58.164Z,15.90
2022-07-28T00:45:58.052Z,15.88
2022-07-28T00:46:58.022Z,15.88
2022-07-28T00:47:57.980Z,15.91
2022-07-28T00:48:58.176Z,15.91
2022-07-28T00:49:57.996Z,15.94
2022-07-28T00:50:58.166Z,15.92
2022-07-28T00:51:57.996Z,15.91
2022-07-28T00:52:57.916Z,15.94
2022-07-28T00:53:58.066Z,15.94
2022-07-28T00:54:57.866Z,15.92
2022-07-28T00:56:05.388Z,15.92
2022-07-28T00:56:57.849Z,15.88
2022-07-28T00:57:57.996Z,15.90
2022-07-28T00:58:58.163Z,15.90
2022-07-28T00:59:58.002Z,15.91
2022-07-28T01:00:57.820Z,15.90
2022-07-28T01:01:57.879Z,15.94
2022-07-28T01:02:58.003Z,15.91
2022-07-28T01:03:58.061Z,15.96
2022-07-28T01:04:57.823Z,16.00
2022-07-28T01:05:57.991Z,16.05
2022-07-28T01:06:57.831Z,16.03
2022-07-28T01:07:57.990Z,16.00
2022-07-28T01:08:57.881Z,16.00
2022-07-28T01:09:57.685Z,15.99
2022-07-28T01:10:57.657Z,15.99
2022-07-28T01:11:57.673Z,15.98
2022-07-28T01:12:57.817Z,16.06
2022-07-28T01:13:57.759Z,16.08
2022-07-28T01:14:57.816Z,16.13
2022-07-28T01:15:57.672Z,16.13
2022-07-28T01:16:57.567Z,16.21
2022-07-28T01:17:57.658Z,16.29
2022-07-28T01:18:57.595Z,16.31
2022-07-28T01:19:57.672Z,16.39
2022-07-28T01:20:57.530Z,16.36
2022-07-28T01:21:57.532Z,16.37
2022-07-28T01:22:57.572Z,16.40
2022-07-28T01:23:57.654Z,16.40
2022-07-28T01:24:57.470Z,16.41
2022-07-28T01:25:57.662Z,16.41
2022-07-28T01:26:57.511Z,16.40
2022-07-28T01:27:57.732Z,16.41
2022-07-28T01:28:57.510Z,16.43
2022-07-28T01:29:57.640Z,16.44
2022-07-28T01:30:57.591Z,16.46
2022-07-28T01:31:57.377Z,16.51
2022-07-28T01:32:57.476Z,16.51
2022-07-28T01:33:57.356Z,16.54
2022-07-28T01:34:57.506Z,16.57
2022-07-28T01:35:57.356Z,16.58
2022-07-28T01:36:57.521Z,16.58
2022-07-28T01:37:57.356Z,16.59
2022-07-28T01:38:57.566Z,16.59
2022-07-28T01:39:57.357Z,16.57
2022-07-28T01:40:57.276Z,16.57
2022-07-28T01:41:57.361Z,16.57
2022-07-28T01:42:57.510Z,16.58
2022-07-28T01:43:57.362Z,16.58
2022-07-28T01:44:57.291Z,16.59
2022-07-28T01:45:57.264Z,16.57
2022-07-28T01:46:57.318Z,16.57
2022-07-28T01:47:57.172Z,16.59
2022-07-28T01:48:57.263Z,16.55
2022-07-28T01:49:57.133Z,16.58
2022-07-28T01:50:57.180Z,16.57
2022-07-28T01:51:57.352Z,16.54
2022-07-28T01:52:57.267Z,16.55
2022-07-28T01:53:57.357Z,16.51
2022-07-28T01:54:57.175Z,16.50
2022-07-28T01:55:57.065Z,16.44
2022-07-28T01:56:57.203Z,16.43
2022-07-28T01:57:57.056Z,16.39
2022-07-28T01:58:57.517Z,16.34
2022-07-28T01:59:57.023Z,16.32
2022-07-28T02:00:57.206Z,16.24
2022-07-28T02:01:57.124Z,16.18
2022-07-28T02:02:57.200Z,16.16
2022-07-28T02:03:57.022Z,16.10
2022-07-28T02:04:57.274Z,16.09
2022-07-28T02:05:57.032Z,16.12
2022-07-28T02:06:56.922Z,16.09
2022-07-28T02:07:57.362Z,16.08
2022-07-28T02:08:56.911Z,16.05
2022-07-28T02:09:56.871Z,16.00
2022-07-28T02:10:56.863Z,15.98
2022-07-28T02:11:56.871Z,16.02
2022-07-28T02:12:56.852Z,16.00
2022-07-28T02:13:56.897Z,15.99
2022-07-28T02:14:56.867Z,15.96
2022-07-28T02:15:56.884Z,15.99
2022-07-28T02:16:56.856Z,15.98
2022-07-28T02:17:57.355Z,15.98
2022-07-28T02:18:56.856Z,15.94
2022-07-28T02:19:56.746Z,15.92
2022-07-28T02:20:56.845Z,15.94
2022-07-28T02:21:56.712Z,15.88
2022-07-28T02:22:56.695Z,15.83
2022-07-28T02:23:56.765Z,15.80
2022-07-28T02:24:56.684Z,15.76
2022-07-28T02:25:56.722Z,15.80
2022-07-28T02:26:56.650Z,15.84
2022-07-28T02:27:56.710Z,15.85
2022-07-28T02:28:56.604Z,15.87
2022-07-28T02:29:56.770Z,15.88
2022-07-28T02:30:56.887Z,15.96
2022-07-28T02:31:56.690Z,15.99
2022-07-28T02:32:56.853Z,16.03
2022-07-28T02:33:59.804Z,16.08
2022-07-28T02:34:56.540Z,16.10
2022-07-28T02:35:57.523Z,16.13
2022-07-28T02:36:56.525Z,16.17
2022-07-28T02:37:56.725Z,16.22
2022-07-28T02:38:56.546Z,16.21
2022-07-28T02:40:00.183Z,16.24
2022-07-28T02:40:56.629Z,16.24
2022-07-28T02:41:56.718Z,16.25
2022-07-28T02:42:56.436Z,16.24
2022-07-28T02:43:56.477Z,16.21
2022-07-28T02:44:56.406Z,16.16
2022-07-28T02:45:56.446Z,16.16
2022-07-28T02:46:56.391Z,16.16
2022-07-28T02:47:56.401Z,16.13
2022-07-28T02:48:56.536Z,16.12
2022-07-28T02:49:56.372Z,16.09
2022-07-28T02:50:56.332Z,16.09
2022-07-28T02:51:56.322Z,16.10
2022-07-28T02:52:56.302Z,16.13
2022-07-28T02:53:56.381Z,16.12
2022-07-28T02:54:56.601Z,16.12
2022-07-28T02:55:56.380Z,16.13
2022-07-28T02:56:56.320Z,16.16
2022-07-28T02:57:56.910Z,16.18
2022-07-28T02:58:56.258Z,16.21
2022-07-28T02:59:56.396Z,16.18
2022-07-28T03:00:56.226Z,16.17
2022-07-28T03:01:56.296Z,16.18
2022-07-28T03:02:56.235Z,16.17
2022-07-28T03:03:56.165Z,16.17
2022-07-28T03:04:56.406Z,16.16
2022-07-28T03:05:56.395Z,16.16
2022-07-28T03:06:56.215Z,16.16
2022-07-28T03:07:56.110Z,16.12
2022-07-28T03:08:56.092Z,16.12
2022-07-28T03:09:56.162Z,16.13
2022-07-28T03:10:56.210Z,16.12
2022-07-28T03:11:56.060Z,16.10
2022-07-28T03:12:56.243Z,16.10
2022-07-28T03:13:56.060Z,16.08
2022-07-28T03:14:56.091Z,16.09
2022-07-28T03:15:56.056Z,16.09
2022-07-28T03:16:56.277Z,16.09
2022-07-28T03:17:56.032Z,16.08
2022-07-28T03:18:55.966Z,16.06
2022-07-28T03:19:56.055Z,16.05
2022-07-28T03:20:56.556Z,16.05
2022-07-28T03:21:56.055Z,16.03
2022-07-28T03:22:55.907Z,16.02
2022-07-28T03:23:56.056Z,16.00
2022-07-28T03:24:55.904Z,16.00
2022-07-28T03:25:55.855Z,15.99
2022-07-28T03:26:55.977Z,15.94
2022-07-28T03:27:55.826Z,15.96
2022-07-28T03:28:55.886Z,15.99
2022-07-28T03:29:59.097Z,16.00
2022-07-28T03:30:56.117Z,15.99
2022-07-28T03:31:55.800Z,15.98
2022-07-28T03:32:55.792Z,15.98
2022-07-28T03:33:55.783Z,15.96
2022-07-28T03:34:55.742Z,15.98
2022-07-28T03:35:55.731Z,15.94
2022-07-28T03:36:55.762Z,15.92
2022-07-28T03:37:55.731Z,15.90
2022-07-28T03:38:55.902Z,15.92
2022-07-28T03:39:55.670Z,15.92
2022-07-28T03:40:55.679Z,15.94
2022-07-28T03:41:55.746Z,15.96
2022-07-28T03:42:56.237Z,15.94
2022-07-28T03:43:55.756Z,15.96
2022-07-28T03:44:55.606Z,15.98
2022-07-28T03:45:55.669Z,16.00
2022-07-28T03:46:55.576Z,16.00
2022-07-28T03:47:55.565Z,16.00
2022-07-28T03:48:55.675Z,16.00
2022-07-28T03:49:55.536Z,16.02
2022-07-28T03:50:55.527Z,16.02
2022-07-28T03:51:55.571Z,16.03
2022-07-28T03:52:55.520Z,16.03
2022-07-28T03:53:55.493Z,16.03
2022-07-28T03:54:55.582Z,16.05
2022-07-28T03:55:55.462Z,16.08
2022-07-28T03:56:55.490Z,16.08
2022-07-28T03:57:55.731Z,16.08
2022-07-28T03:58:55.411Z,16.09
2022-07-28T03:59:55.437Z,16.09
2022-07-28T04:00:55.449Z,16.10
2022-07-28T04:01:55.753Z,16.10
2022-07-28T04:02:55.671Z,16.13
2022-07-28T04:03:55.426Z,16.12
2022-07-28T04:04:55.349Z,16.13
2022-07-28T04:05:55.436Z,16.12
2022-07-28T04:06:55.326Z,16.12
2022-07-28T04:07:55.486Z,16.13
2022-07-28T04:08:55.288Z,16.12
2022-07-28T04:09:55.275Z,16.12
2022-07-28T04:10:55.258Z,16.16
2022-07-28T04:11:55.428Z,16.16
2022-07-28T04:12:55.338Z,16.21
2022-07-28T04:13:55.431Z,16.24
2022-07-28T04:14:55.273Z,16.26
2022-07-28T04:15:55.444Z,16.26
2022-07-28T04:16:55.333Z,16.25
2022-07-28T04:17:55.487Z,16.26
2022-07-28T04:18:55.261Z,16.28
2022-07-28T04:19:55.146Z,16.28
2022-07-28T04:20:55.272Z,16.29
2022-07-28T04:21:55.143Z,16.29
2022-07-28T04:22:55.142Z,16.31
2022-07-28T04:23:59.797Z,16.31
2022-07-28T04:24:55.275Z,16.29
2022-07-28T04:25:55.086Z,16.28
2022-07-28T04:26:55.337Z,16.34
2022-07-28T04:27:55.096Z,16.36
2022-07-28T04:28:55.265Z,16.37
2022-07-28T04:29:55.095Z,16.40
2022-07-28T04:30:55.328Z,16.41
2022-07-28T04:31:55.166Z,16.43
2022-07-28T04:32:54.967Z,16.43
2022-07-28T04:33:54.945Z,16.41
2022-07-28T04:34:54.961Z,16.43
2022-07-28T04:35:55.091Z,16.44
2022-07-28T04:36:55.021Z,16.46
2022-07-28T04:37:55.090Z,16.46
2022-07-28T04:38:54.945Z,16.47
2022-07-28T04:39:55.093Z,16.50
2022-07-28T04:40:54.921Z,16.50
2022-07-28T04:41:55.170Z,16.47
2022-07-28T04:42:54.922Z,16.54
2022-07-28T04:43:54.818Z,16.58
2022-07-28T04:44:54.946Z,16.58
2022-07-28T04:45:55.162Z,16.61
2022-07-28T04:46:54.805Z,16.59
2022-07-28T04:47:54.876Z,16.59
2022-07-28T04:48:54.838Z,16.59
2022-07-28T04:49:54.767Z,16.64
2022-07-28T04:50:54.726Z,16.68
2022-07-28T04:51:54.717Z,16.68
2022-07-28T04:52:54.697Z,16.77
2022-07-28T04:53:54.745Z,16.82
2022-07-28T04:54:54.937Z,16.83
2022-07-28T04:55:54.926Z,16.91
2022-07-28T04:56:54.662Z,16.97
2022-07-28T04:57:54.641Z,16.97
2022-07-28T04:58:54.705Z,16.97
2022-07-28T04:59:56.703Z,17.02
2022-07-28T05:00:54.678Z,17.10
2022-07-28T05:01:54.601Z,17.14
2022-07-28T05:02:54.621Z,17.22
2022-07-28T05:03:54.622Z,17.30
2022-07-28T05:04:54.775Z,17.34
2022-07-28T05:05:55.099Z,17.37
2022-07-28T05:06:54.510Z,17.42
2022-07-28T05:07:54.527Z,17.50
2022-07-28T05:08:54.687Z,17.60
2022-07-28T05:09:54.486Z,17.73
2022-07-28T05:10:54.628Z,17.80
2022-07-28T05:11:54.477Z,17.79
2022-07-28T05:12:54.460Z,17.90
2022-07-28T05:13:54.466Z,18.09
2022-07-28T05:14:54.676Z,18.21
2022-07-28T05:15:54.458Z,18.49
2022-07-28T05:16:54.441Z,19.15
2022-07-28T05:17:54.466Z,20.17
2022-07-28T05:18:54.700Z,21.03
2022-07-28T05:19:54.563Z,21.75
2022-07-28T05:20:54.341Z,22.56
2022-07-28T05:21:54.462Z,23.07
2022-07-28T05:22:54.300Z,23.47
2022-07-28T05:23:54.282Z,23.18
2022-07-28T05:24:54.373Z,23.79
2022-07-28T05:25:54.478Z,24.36
2022-07-28T05:26:54.291Z,24.88
2022-07-28T05:27:54.450Z,24.97
2022-07-28T05:28:54.318Z,24.36
2022-07-28T05:29:54.466Z,24.44
2022-07-28T05:30:54.392Z,24.94
2022-07-28T05:31:54.225Z,25.00
2022-07-28T05:32:54.299Z,25.40
2022-07-28T05:33:54.167Z,25.19
2022-07-28T05:34:54.306Z,25.55
2022-07-28T05:35:54.215Z,25.66
2022-07-28T05:36:54.295Z,25.49
2022-07-28T05:37:54.125Z,25.14
2022-07-28T05:38:54.286Z,24.79
2022-07-28T05:39:54.140Z,24.48
2022-07-28T05:40:54.291Z,24.92
2022-07-28T05:41:54.221Z,24.50
2022-07-28T05:42:54.302Z,24.62
2022-07-28T05:43:54.140Z,24.69
2022-07-28T05:44:54.007Z,25.01
2022-07-28T05:45:54.191Z,25.34
2022-07-28T05:46:53.985Z,24.81
2022-07-28T05:47:54.191Z,25.21
2022-07-28T05:48:54.023Z,25.15
2022-07-28T05:49:54.207Z,25.88
2022-07-28T05:50:53.977Z,25.39
2022-07-28T05:51:54.137Z,24.63
2022-07-28T05:52:53.905Z,25.37
2022-07-28T05:53:53.896Z,25.85
2022-07-28T05:54:53.887Z,26.51
2022-07-28T05:55:59.622Z,27.00
2022-07-28T05:56:53.855Z,27.22
2022-07-28T05:57:53.846Z,27.28
2022-07-28T05:58:54.001Z,27.66
2022-07-28T05:59:53.832Z,27.71
2022-07-28T06:00:53.892Z,27.94
2022-07-28T06:01:53.957Z,27.64
2022-07-28T06:02:53.788Z,26.98
2022-07-28T06:04:10.120Z,26.98
2022-07-28T06:04:53.762Z,26.46
2022-07-28T06:06:09.720Z,26.36
2022-07-28T06:06:53.734Z,26.52
2022-07-28T06:07:53.724Z,26.55
2022-07-28T06:08:53.739Z,26.74
2022-07-28T06:09:53.737Z,27.11
2022-07-28T06:10:53.724Z,27.07
2022-07-28T06:11:53.677Z,27.20
2022-07-28T06:12:53.668Z,27.75
2022-07-28T06:13:53.640Z,27.64
2022-07-28T06:14:53.656Z,27.40
2022-07-28T06:15:53.878Z,27.47
2022-07-28T06:16:53.722Z,27.25
2022-07-28T06:17:53.621Z,26.78
2022-07-28T06:18:53.681Z,26.60
2022-07-28T06:19:53.891Z,25.91
2022-07-28T06:20:53.672Z,24.85
2022-07-28T06:21:53.811Z,24.99
2022-07-28T06:22:53.656Z,25.22
2022-07-28T06:23:53.510Z,25.30
2022-07-28T06:24:53.501Z,25.66
2022-07-28T06:25:53.561Z,25.55
2022-07-28T06:26:53.665Z,25.98
2022-07-28T06:27:53.506Z,27.00
2022-07-28T06:28:53.667Z,27.61
2022-07-28T06:29:53.509Z,27.41
2022-07-28T06:30:53.666Z,27.13
2022-07-28T06:31:53.691Z,27.16
2022-07-28T06:32:53.396Z,27.58
2022-07-28T06:33:53.499Z,28.16
2022-07-28T06:34:53.366Z,28.25
2022-07-28T06:35:53.517Z,28.27
2022-07-28T06:36:53.499Z,27.79
2022-07-28T06:37:53.848Z,27.10
2022-07-28T06:38:53.331Z,27.45
2022-07-28T06:39:53.491Z,27.88
2022-07-28T06:40:53.331Z,28.20
2022-07-28T06:41:53.341Z,28.15
2022-07-28T06:42:53.331Z,27.86
2022-07-28T06:43:53.491Z,28.19
2022-07-28T06:44:58.863Z,28.77
2022-07-28T06:45:53.246Z,29.02
2022-07-28T06:46:53.360Z,28.53
2022-07-28T06:47:53.515Z,28.41
2022-07-28T06:48:53.391Z,28.56
2022-07-28T06:49:53.188Z,29.15
2022-07-28T06:50:53.337Z,28.72
2022-07-28T06:51:53.166Z,28.94
2022-07-28T06:52:53.395Z,29.28
2022-07-28T06:53:53.199Z,29.47
2022-07-28T06:54:53.341Z,29.16
2022-07-28T06:55:53.126Z,28.50
2022-07-28T06:56:53.108Z,28.80
2022-07-28T06:57:53.193Z,28.97
2022-07-28T06:58:53.404Z,29.53
2022-07-28T06:59:53.081Z,29.49
2022-07-28T07:00:53.127Z,29.50
2022-07-28T07:01:53.031Z,29.31
2022-07-28T07:02:53.021Z,28.50
2022-07-28T07:03:53.128Z,28.55
2022-07-28T07:04:53.055Z,28.72
2022-07-28T07:05:53.196Z,28.10
2022-07-28T07:06:52.976Z,27.26
2022-07-28T07:07:53.026Z,26.33
2022-07-28T07:08:53.018Z,25.26
2022-07-28T07:09:52.940Z,24.36
2022-07-28T07:10:52.916Z,23.96
2022-07-28T07:11:52.897Z,23.45
2022-07-28T07:12:53.074Z,22.92
2022-07-28T07:13:52.980Z,22.44
2022-07-28T07:14:52.882Z,22.21
2022-07-28T07:15:52.949Z,22.00
2022-07-28T07:16:52.841Z,22.78
2022-07-28T07:17:52.955Z,23.59
2022-07-28T07:18:52.832Z,24.51
2022-07-28T07:19:52.871Z,24.13
2022-07-28T07:20:52.801Z,24.99
2022-07-28T07:21:52.872Z,26.29
2022-07-28T07:22:52.786Z,27.57
2022-07-28T07:23:52.968Z,26.73
2022-07-28T07:24:56.840Z,27.22
2022-07-28T07:25:52.867Z,28.22
2022-07-28T07:26:52.737Z,28.50
2022-07-28T07:27:52.708Z,28.43
2022-07-28T07:28:52.763Z,28.84
2022-07-28T07:29:52.745Z,27.52
2022-07-28T07:30:52.696Z,26.07
2022-07-28T07:31:53.626Z,25.26
2022-07-28T07:32:53.030Z,24.62
2022-07-28T07:33:52.872Z,23.91
2022-07-28T07:34:52.701Z,23.40
2022-07-28T07:35:52.620Z,23.56
2022-07-28T07:36:52.695Z,23.84
2022-07-28T07:37:52.681Z,24.01
2022-07-28T07:38:52.702Z,24.71
2022-07-28T07:39:52.542Z,25.19
2022-07-28T07:40:52.696Z,26.03
2022-07-28T07:41:52.547Z,26.53
2022-07-28T07:42:52.697Z,27.60
2022-07-28T07:43:52.626Z,28.50
2022-07-28T07:44:52.705Z,28.75
2022-07-28T07:45:52.556Z,28.27
2022-07-28T07:46:52.787Z,28.56
2022-07-28T07:47:52.443Z,28.31
2022-07-28T07:48:52.568Z,27.79
2022-07-28T07:49:52.452Z,26.44
2022-07-28T07:50:54.186Z,25.77
2022-07-28T07:51:52.552Z,24.96
2022-07-28T07:52:52.391Z,24.81
2022-07-28T07:53:52.630Z,25.19
2022-07-28T07:54:52.401Z,25.88
2022-07-28T07:55:52.341Z,26.07
2022-07-28T07:56:52.321Z,27.40
2022-07-28T07:57:52.325Z,28.37
2022-07-28T07:58:56.704Z,29.44
2022-07-28T07:59:52.546Z,29.71
2022-07-28T08:00:52.397Z,29.05
2022-07-28T08:01:52.618Z,28.50
2022-07-28T08:02:52.386Z,27.11
2022-07-28T08:03:53.725Z,26.78
2022-07-28T08:04:52.430Z,26.88
2022-07-28T08:05:52.216Z,27.28
2022-07-28T08:06:52.187Z,26.68
2022-07-28T08:07:52.186Z,25.44
2022-07-28T08:08:52.380Z,24.63
2022-07-28T08:09:52.222Z,25.33
2022-07-28T08:10:52.140Z,25.93
2022-07-28T08:11:52.141Z,27.11
2022-07-28T08:12:52.121Z,28.33
2022-07-28T08:13:52.297Z,28.68
2022-07-28T08:14:52.091Z,29.18
2022-07-28T08:15:52.380Z,29.28
2022-07-28T08:16:52.070Z,29.10
2022-07-28T08:17:52.087Z,29.20
2022-07-28T08:18:52.077Z,28.89
2022-07-28T08:19:52.095Z,28.77
2022-07-28T08:20:52.056Z,28.45
2022-07-28T08:21:52.006Z,29.28
2022-07-28T08:22:52.057Z,30.11
2022-07-28T08:23:51.976Z,30.44
2022-07-28T08:24:52.007Z,30.71
2022-07-28T08:25:51.942Z,30.08
2022-07-28T08:26:52.071Z,29.94
2022-07-28T08:27:51.929Z,29.22
2022-07-28T08:28:51.943Z,28.55
2022-07-28T08:29:51.976Z,28.19
2022-07-28T08:30:52.118Z,28.38
2022-07-28T08:31:51.950Z,28.75
2022-07-28T08:32:56.606Z,29.61
2022-07-28T08:33:53.301Z,29.64
2022-07-28T08:35:00.165Z,29.28
2022-07-28T08:35:51.905Z,28.62
2022-07-28T08:36:52.086Z,28.89
2022-07-28T08:37:51.905Z,28.94
2022-07-28T08:38:52.048Z,29.09
2022-07-28T08:39:51.976Z,29.46
2022-07-28T08:40:51.770Z,29.13
2022-07-28T08:41:51.897Z,29.22
2022-07-28T08:42:51.755Z,29.64
2022-07-28T08:43:51.719Z,29.55
2022-07-28T08:44:51.841Z,29.55
2022-07-28T08:45:57.794Z,29.21
2022-07-28T08:46:51.799Z,29.49
2022-07-28T08:48:07.754Z,29.59
2022-07-28T08:48:51.835Z,29.07
2022-07-28T08:49:51.903Z,28.87
2022-07-28T08:50:51.801Z,28.71
2022-07-28T08:51:51.640Z,28.12
2022-07-28T08:52:51.742Z,28.71
2022-07-28T08:53:51.615Z,28.72
2022-07-28T08:54:51.736Z,28.82
2022-07-28T08:55:51.639Z,29.16
2022-07-28T08:56:51.738Z,29.46
2022-07-28T08:57:51.582Z,29.62
2022-07-28T08:58:51.726Z,29.74
2022-07-28T08:59:51.575Z,29.57
2022-07-28T09:00:51.565Z,29.21
2022-07-28T09:01:57.009Z,29.00
2022-07-28T09:02:52.203Z,29.62
2022-07-28T09:03:51.592Z,29.44
2022-07-28T09:04:51.740Z,29.27
2022-07-28T09:05:51.652Z,29.83
2022-07-28T09:06:51.420Z,29.84
2022-07-28T09:07:54.682Z,29.95
2022-07-28T09:08:51.425Z,29.99
2022-07-28T09:09:51.370Z,30.24
2022-07-28T09:10:51.502Z,30.63
2022-07-28T09:11:51.375Z,30.23
2022-07-28T09:12:51.366Z,30.33
2022-07-28T09:13:54.047Z,30.40
2022-07-28T09:14:51.336Z,29.99
2022-07-28T09:15:51.338Z,30.17
2022-07-28T09:16:51.498Z,29.79
2022-07-28T09:17:51.286Z,30.20
2022-07-28T09:18:51.291Z,30.65
2022-07-28T09:19:51.289Z,30.78
2022-07-28T09:20:51.262Z,31.02
2022-07-28T09:21:51.252Z,30.77
2022-07-28T09:22:51.301Z,30.71
2022-07-28T09:23:51.261Z,30.38
2022-07-28T09:24:51.200Z,30.49
2022-07-28T09:25:51.271Z,30.08
2022-07-28T09:26:51.179Z,30.35
2022-07-28T09:27:51.276Z,30.55
2022-07-28T09:28:51.225Z,30.67
2022-07-28T09:29:51.266Z,30.31
2022-07-28T09:30:53.946Z,30.56
2022-07-28T09:31:55.849Z,30.71
2022-07-28T09:32:51.107Z,30.29
2022-07-28T09:33:51.255Z,29.77
2022-07-28T09:34:51.764Z,29.58
2022-07-28T09:35:51.091Z,29.58
2022-07-28T09:36:51.164Z,29.46
2022-07-28T09:37:51.051Z,29.59
2022-07-28T09:38:51.111Z,29.10
2022-07-28T09:39:51.271Z,29.58
2022-07-28T09:40:51.110Z,29.77
2022-07-28T09:41:51.342Z,29.52
2022-07-28T09:42:51.091Z,29.39
2022-07-28T09:43:54.764Z,29.24
2022-07-28T09:45:20.246Z,29.40
2022-07-28T09:45:50.955Z,29.30
2022-07-28T09:46:51.340Z,29.42
2022-07-28T09:47:51.319Z,29.43
2022-07-28T09:48:51.337Z,29.69
2022-07-28T09:49:50.980Z,30.13
2022-07-28T09:50:50.895Z,30.51
2022-07-28T09:51:50.856Z,30.96
2022-07-28T09:52:50.870Z,31.13
2022-07-28T09:53:51.044Z,30.55
2022-07-28T09:54:50.821Z,30.27
2022-07-28T09:55:50.942Z,30.02
2022-07-28T09:56:51.090Z,29.86
2022-07-28T09:57:50.939Z,30.27
2022-07-28T09:58:50.761Z,30.83
2022-07-28T09:59:55.594Z,31.04
2022-07-28T10:00:50.787Z,30.98
2022-07-28T10:01:51.058Z,30.44
2022-07-28T10:02:50.898Z,29.92
2022-07-28T10:03:50.945Z,29.92
2022-07-28T10:04:50.777Z,30.03
2022-07-28T10:05:53.914Z,29.68
2022-07-28T10:06:50.776Z,29.31
2022-07-28T10:07:50.680Z,29.68
2022-07-28T10:08:50.852Z,29.79
2022-07-28T10:09:50.671Z,30.20
2022-07-28T10:10:50.630Z,30.40
2022-07-28T10:11:50.631Z,30.40
2022-07-28T10:12:50.789Z,29.69
2022-07-28T10:13:50.641Z,29.55
2022-07-28T10:14:50.580Z,29.67
2022-07-28T10:15:51.264Z,29.98
2022-07-28T10:16:50.797Z,30.21
2022-07-28T10:17:50.697Z,30.18
2022-07-28T10:18:50.786Z,30.31
2022-07-28T10:19:50.616Z,29.90
2022-07-28T10:20:50.515Z,29.69
2022-07-28T10:21:50.507Z,29.92
2022-07-28T10:22:50.486Z,30.02
2022-07-28T10:23:50.635Z,29.89
2022-07-28T10:24:50.470Z,30.39
2022-07-28T10:25:50.459Z,30.17
2022-07-28T10:26:50.452Z,29.94
2022-07-28T10:27:50.430Z,30.23
2022-07-28T10:28:50.521Z,30.35
2022-07-28T10:29:50.615Z,30.08
2022-07-28T10:30:50.473Z,30.10
2022-07-28T10:31:50.371Z,30.06
2022-07-28T10:32:50.377Z,29.92
2022-07-28T10:33:50.448Z,30.33
2022-07-28T10:34:50.346Z,29.90
2022-07-28T10:35:55.174Z,29.83
2022-07-28T10:36:50.326Z,29.74
2022-07-28T10:37:50.295Z,30.33
2022-07-28T10:38:50.286Z,30.24
2022-07-28T10:39:50.366Z,30.52
2022-07-28T10:40:50.268Z,30.71
2022-07-28T10:41:50.331Z,30.71
2022-07-28T10:42:50.261Z,30.38
2022-07-28T10:43:50.320Z,30.36
2022-07-28T10:44:50.279Z,29.96
2022-07-28T10:46:08.086Z,29.95
2022-07-28T10:46:50.498Z,30.05
2022-07-28T10:47:50.292Z,30.31
2022-07-28T10:48:50.294Z,30.36
2022-07-28T10:49:50.324Z,30.38
2022-07-28T10:50:50.225Z,30.70
2022-07-28T10:52:19.739Z,30.36
2022-07-28T10:52:53.645Z,30.39
2022-07-28T10:53:50.105Z,30.69
2022-07-28T10:54:50.205Z,30.56
2022-07-28T10:55:50.075Z,30.55
2022-07-28T10:56:50.135Z,30.63
2022-07-28T10:58:02.176Z,30.35
2022-07-28T10:58:50.140Z,30.20
2022-07-28T10:59:55.770Z,30.51
2022-07-28T11:00:56.781Z,30.43
2022-07-28T11:01:50.697Z,30.21
2022-07-28T11:02:50.374Z,29.98
2022-07-28T11:03:50.119Z,30.20
2022-07-28T11:04:49.961Z,30.13
2022-07-28T11:05:50.060Z,29.89
2022-07-28T11:06:49.945Z,29.92
2022-07-28T11:07:49.985Z,30.05
2022-07-28T11:08:50.135Z,29.92
2022-07-28T11:09:49.995Z,30.02
2022-07-28T11:10:50.245Z,30.44
2022-07-28T11:11:50.025Z,30.65
2022-07-28T11:12:49.854Z,30.80
2022-07-28T11:13:51.546Z,30.63
2022-07-28T11:14:50.135Z,30.71
2022-07-28T11:15:49.979Z,30.85
2022-07-28T11:16:49.964Z,30.81
2022-07-28T11:17:49.981Z,30.74
2022-07-28T11:18:49.855Z,30.39
2022-07-28T11:19:55.876Z,30.08
2022-07-28T11:20:49.903Z,29.96
2022-07-28T11:21:52.908Z,29.99
2022-07-28T11:22:49.810Z,29.92
2022-07-28T11:23:49.714Z,29.59
2022-07-28T11:24:49.722Z,29.18
2022-07-28T11:25:49.995Z,28.87
2022-07-28T11:26:49.897Z,29.16
2022-07-28T11:27:49.680Z,29.28
2022-07-28T11:28:49.675Z,29.40
2022-07-28T11:29:49.646Z,29.31
2022-07-28T11:30:49.889Z,29.34
2022-07-28T11:31:49.735Z,28.72
2022-07-28T11:32:49.605Z,28.74
2022-07-28T11:33:49.681Z,28.67
2022-07-28T11:34:49.591Z,28.67
2022-07-28T11:35:49.584Z,28.89
2022-07-28T11:36:49.683Z,28.86
2022-07-28T11:37:49.720Z,28.75
2022-07-28T11:38:49.520Z,28.72
2022-07-28T11:39:49.501Z,28.80
2022-07-28T11:40:49.500Z,28.62
2022-07-28T11:41:49.553Z,28.60
2022-07-28T11:42:49.565Z,28.56
2022-07-28T11:43:49.475Z,28.62
2022-07-28T11:44:49.455Z,28.55
2022-07-28T11:45:54.125Z,28.55
2022-07-28T11:46:52.707Z,28.71
2022-07-28T11:47:49.728Z,28.83
2022-07-28T11:48:49.565Z,28.87
2022-07-28T11:49:49.375Z,29.00
2022-07-28T11:50:49.496Z,29.18
2022-07-28T11:51:51.258Z,29.07
2022-07-28T11:52:49.572Z,29.21
2022-07-28T11:53:49.356Z,29.27
2022-07-28T11:54:49.341Z,29.42
2022-07-28T11:56:02.284Z,29.44
2022-07-28T11:56:49.311Z,29.64
2022-07-28T11:57:53.476Z,29.53
2022-07-28T11:58:49.351Z,29.61
2022-07-28T11:59:49.721Z,29.68
2022-07-28T12:00:49.491Z,29.46
2022-07-28T12:01:49.384Z,28.96
2022-07-28T12:02:49.282Z,28.71
2022-07-28T12:03:55.126Z,28.52
2022-07-28T12:04:49.286Z,28.30
2022-07-28T12:05:49.346Z,28.00
2022-07-28T12:06:49.528Z,27.83
2022-07-28T12:07:49.156Z,27.71
2022-07-28T12:08:49.245Z,27.67
2022-07-28T12:09:49.347Z,27.60
2022-07-28T12:10:54.882Z,27.47
2022-07-28T12:11:49.370Z,27.41
2022-07-28T12:12:49.191Z,27.41
2022-07-28T12:13:49.099Z,27.44
2022-07-28T12:14:49.250Z,27.44
2022-07-28T12:15:49.061Z,27.52
2022-07-28T12:16:49.105Z,27.55
2022-07-28T12:17:49.330Z,27.45
2022-07-28T12:18:49.182Z,27.15
2022-07-28T12:19:49.107Z,27.20
2022-07-28T12:20:48.998Z,27.30
2022-07-28T12:21:49.488Z,27.37
2022-07-28T12:22:48.955Z,27.30
2022-07-28T12:23:49.486Z,27.20
2022-07-28T12:24:48.992Z,27.13
2022-07-28T12:25:49.017Z,27.22
2022-07-28T12:26:50.466Z,27.34
2022-07-28T12:27:49.027Z,27.44
2022-07-28T12:28:49.191Z,27.48
2022-07-28T12:29:49.498Z,27.43
2022-07-28T12:30:48.866Z,27.44
2022-07-28T12:31:49.128Z,27.37
2022-07-28T12:32:48.843Z,27.25
2022-07-28T12:33:49.021Z,27.23
2022-07-28T12:34:48.810Z,27.23
2022-07-28T12:35:48.840Z,27.29
2022-07-28T12:36:48.771Z,27.34
2022-07-28T12:37:48.776Z,27.44
2022-07-28T12:38:48.874Z,27.40
2022-07-28T12:39:48.745Z,27.43
2022-07-28T12:40:48.935Z,27.50
2022-07-28T12:41:48.705Z,27.52
2022-07-28T12:42:52.133Z,27.45
2022-07-28T12:43:48.695Z,27.38
2022-07-28T12:44:48.932Z,27.28
2022-07-28T12:45:48.709Z,27.33
2022-07-28T12:46:48.646Z,27.25
2022-07-28T12:47:48.711Z,27.33
2022-07-28T12:48:48.736Z,27.33
2022-07-28T12:49:48.691Z,27.33
2022-07-28T12:50:48.591Z,27.30
2022-07-28T12:51:48.692Z,27.30
2022-07-28T12:52:48.561Z,27.37